Time;durP1;ratioP1;P1;durP2;ratioP2;P2;SDS_P1;SDS_P2;PMS_P1;PMS_P2;Temp;Humidity;BMP_temperature;BMP_pressure;BME280_temperature;BME280_humidity;BME280_pressure;Samples;Min_cycle;Max_cycle;Signal;HPM_P1;HPM_P2
2021/05/12 00:02:06;;;;;;;20.60;6.30;;;;;;;;;;5106549;28;20073;-66
2021/05/12 00:04:31;;;;;;;18.87;6.60;;;;;;;;;;5111273;28;20531;-66
2021/05/12 00:06:56;;;;;;;17.67;6.70;;;;;;;;;;5110097;28;20451;-66
2021/05/12 00:09:21;;;;;;;17.87;6.80;;;;;;;;;;5107927;28;20015;-66
2021/05/12 00:11:47;;;;;;;15.93;5.90;;;;;;;;;;5112086;28;20062;-66
2021/05/12 00:14:12;;;;;;;18.03;7.00;;;;;;;;;;5111825;28;20031;-66
2021/05/12 00:16:37;;;;;;;17.93;7.23;;;;;;;;;;5100909;28;20032;-66
2021/05/12 00:19:03;;;;;;;16.07;6.50;;;;;;;;;;5111998;28;20492;-66
2021/05/12 00:21:31;;;;;;;17.83;7.50;;;;;;;;;;5111317;28;20098;-66
2021/05/12 00:24:00;;;;;;;19.53;7.43;;;;;;;;;;5106197;28;20111;-66
2021/05/12 00:26:35;;;;;;;18.27;7.43;;;;;;;;;;5104639;28;20133;-66
2021/05/12 00:29:01;;;;;;;20.47;7.60;;;;;;;;;;5100235;28;20024;-66
2021/05/12 00:31:26;;;;;;;23.40;7.57;;;;;;;;;;5108945;28;20023;-66
2021/05/12 00:33:51;;;;;;;18.70;7.77;;;;;;;;;;5109033;28;20039;-66
2021/05/12 00:36:16;;;;;;;18.90;7.43;;;;;;;;;;5109526;28;20110;-66
2021/05/12 00:38:42;;;;;;;19.40;7.67;;;;;;;;;;5106960;28;20031;-66
2021/05/12 00:41:07;;;;;;;18.07;7.20;;;;;;;;;;5105049;28;20441;-66
2021/05/12 00:43:32;;;;;;;20.80;7.57;;;;;;;;;;5109003;28;20016;-66
2021/05/12 00:45:58;;;;;;;19.13;6.97;;;;;;;;;;5104686;28;20448;-66
2021/05/12 00:48:23;;;;;;;23.37;7.97;;;;;;;;;;5113157;28;20028;-66
2021/05/12 00:50:48;;;;;;;17.47;7.20;;;;;;;;;;5109989;28;20035;-66
2021/05/12 00:53:14;;;;;;;19.63;6.97;;;;;;;;;;5111989;28;20030;-66
2021/05/12 00:55:39;;;;;;;21.30;7.90;;;;;;;;;;5103267;28;20032;-66
2021/05/12 00:58:04;;;;;;;21.53;8.60;;;;;;;;;;5112033;28;20459;-66
2021/05/12 01:00:29;;;;;;;20.13;7.90;;;;;;;;;;5108579;28;20499;-66
2021/05/12 01:02:55;;;;;;;19.07;7.57;;;;;;;;;;5112320;28;20023;-66
2021/05/12 01:05:25;;;;;;;20.43;8.03;;;;;;;;;;5062462;22;20049;-92
2021/05/12 01:07:50;;;;;;;21.83;8.13;;;;;;;;;;5058760;28;20017;-92
2021/05/12 01:10:16;;;;;;;27.43;8.03;;;;;;;;;;5055812;28;20051;-93
2021/05/12 01:12:41;;;;;;;24.93;8.13;;;;;;;;;;5051925;28;20028;-92
2021/05/12 01:15:07;;;;;;;22.07;7.97;;;;;;;;;;5051840;28;20033;-92
2021/05/12 01:17:32;;;;;;;21.90;7.67;;;;;;;;;;5052514;28;20025;-92
2021/05/12 01:19:57;;;;;;;20.77;8.47;;;;;;;;;;5050348;28;20071;-93
2021/05/12 01:22:23;;;;;;;24.83;8.97;;;;;;;;;;5051563;28;20138;-92
2021/05/12 01:24:48;;;;;;;22.83;8.33;;;;;;;;;;5052356;28;20431;-92
2021/05/12 01:27:13;;;;;;;24.93;8.43;;;;;;;;;;5051634;28;20051;-92
2021/05/12 01:29:39;;;;;;;18.77;7.97;;;;;;;;;;5051763;28;20025;-93
2021/05/12 01:32:05;;;;;;;20.00;7.67;;;;;;;;;;5051758;28;20152;-92
2021/05/12 01:34:30;;;;;;;21.33;7.90;;;;;;;;;;5071214;28;20048;-92
2021/05/12 01:36:56;;;;;;;22.57;8.20;;;;;;;;;;5073783;28;20020;-93
2021/05/12 01:39:22;;;;;;;23.97;8.43;;;;;;;;;;5072096;28;20453;-92
2021/05/12 01:41:48;;;;;;;20.20;9.00;;;;;;;;;;5074288;28;20048;-93
2021/05/12 01:44:13;;;;;;;20.20;8.57;;;;;;;;;;5075220;28;20423;-92
2021/05/12 01:46:43;;;;;;;25.13;8.97;;;;;;;;;;5071756;28;20021;-92
2021/05/12 01:49:09;;;;;;;23.83;9.07;;;;;;;;;;5073751;28;20150;-93
2021/05/12 01:51:35;;;;;;;21.73;8.20;;;;;;;;;;5083022;28;20036;-92
2021/05/12 01:54:00;;;;;;;19.07;7.13;;;;;;;;;;5072061;28;20021;-92
2021/05/12 01:56:27;;;;;;;20.27;7.90;;;;;;;;;;5078035;28;20028;-92
2021/05/12 01:58:52;;;;;;;22.37;8.57;;;;;;;;;;5079678;28;20028;-93
2021/05/12 02:01:19;;;;;;;23.00;8.63;;;;;;;;;;5074380;28;20013;-92
2021/05/12 02:03:44;;;;;;;22.43;7.80;;;;;;;;;;5072872;28;20158;-93
2021/05/12 02:06:11;;;;;;;21.60;8.30;;;;;;;;;;5078377;28;20028;-92
2021/05/12 02:08:38;;;;;;;18.53;8.03;;;;;;;;;;5072275;28;20040;-93
2021/05/12 02:11:06;;;;;;;22.73;7.83;;;;;;;;;;5080762;28;20041;-92
2021/05/12 02:13:36;;;;;;;20.97;8.00;;;;;;;;;;5075507;28;20029;-92
2021/05/12 02:16:08;;;;;;;17.30;7.60;;;;;;;;;;5082626;28;20044;-92
2021/05/12 02:18:35;;;;;;;18.42;7.28;;;;;;;;;;5063980;28;20103;-92
2021/05/12 02:21:01;;;;;;;20.17;7.37;;;;;;;;;;5089325;28;20028;-92
2021/05/12 02:23:28;;;;;;;20.30;7.80;;;;;;;;;;5056626;28;20075;-92
2021/05/12 02:25:54;;;;;;;20.50;7.47;;;;;;;;;;5054000;28;20070;-92
2021/05/12 02:28:20;;;;;;;23.00;7.60;;;;;;;;;;5078666;28;20024;-92
2021/05/12 02:30:46;;;;;;;22.70;8.80;;;;;;;;;;5081771;28;20530;-93
2021/05/12 02:33:16;;;;;;;20.83;8.30;;;;;;;;;;5070338;28;20099;-93
2021/05/12 02:35:44;;;;;;;20.73;8.07;;;;;;;;;;5082401;28;20522;-93
2021/05/12 02:38:13;;;;;;;21.50;8.00;;;;;;;;;;5074272;28;20344;-92
2021/05/12 02:40:40;;;;;;;21.53;8.87;;;;;;;;;;5059036;28;20090;-92
2021/05/12 02:43:10;;;;;;;21.23;8.50;;;;;;;;;;5075607;28;20055;-92
2021/05/12 02:45:39;;;;;;;21.13;8.65;;;;;;;;;;5066335;28;20056;-92
2021/05/12 02:48:06;;;;;;;22.27;9.07;;;;;;;;;;5076576;28;20043;-92
2021/05/12 02:50:36;;;;;;;24.03;8.23;;;;;;;;;;5074791;28;20036;-92
2021/05/12 02:53:02;;;;;;;21.07;8.57;;;;;;;;;;5077925;28;20057;-93
2021/05/12 02:55:29;;;;;;;19.87;8.43;;;;;;;;;;5077066;28;20028;-92
2021/05/12 02:57:54;;;;;;;23.77;8.67;;;;;;;;;;5073394;28;20048;-93
2021/05/12 03:00:22;;;;;;;24.30;8.87;;;;;;;;;;5084820;28;20024;-93
2021/05/12 03:02:47;;;;;;;22.17;8.20;;;;;;;;;;5076272;28;20099;-92
2021/05/12 03:05:13;;;;;;;23.43;9.57;;;;;;;;;;5088217;28;20208;-92
2021/05/12 03:07:39;;;;;;;23.23;9.00;;;;;;;;;;5082297;28;20016;-92
2021/05/12 03:10:08;;;;;;;29.97;9.33;;;;;;;;;;5080941;28;20078;-92
2021/05/12 03:12:33;;;;;;;24.83;9.43;;;;;;;;;;5080670;28;20016;-92
2021/05/12 03:14:59;;;;;;;21.87;8.80;;;;;;;;;;5082805;28;20060;-92
2021/05/12 03:17:25;;;;;;;23.33;8.47;;;;;;;;;;5078017;28;20802;-92
2021/05/12 03:19:50;;;;;;;24.90;8.73;;;;;;;;;;5087699;28;20043;-93
2021/05/12 03:22:16;;;;;;;22.80;8.83;;;;;;;;;;5080319;28;20028;-92
2021/05/12 03:24:41;;;;;;;17.80;8.33;;;;;;;;;;5077203;28;20032;-92
2021/05/12 03:27:07;;;;;;;23.43;9.30;;;;;;;;;;5076880;28;20027;-93
2021/05/12 03:29:32;;;;;;;23.60;8.60;;;;;;;;;;5071099;28;20040;-92
2021/05/12 03:31:57;;;;;;;23.73;8.93;;;;;;;;;;5079216;28;20029;-92
2021/05/12 03:34:23;;;;;;;24.17;9.40;;;;;;;;;;5084145;28;20060;-93
2021/05/12 03:36:48;;;;;;;22.13;8.63;;;;;;;;;;5082934;28;20039;-93
2021/05/12 03:39:16;;;;;;;26.07;9.37;;;;;;;;;;5080227;28;20031;-93
2021/05/12 03:41:41;;;;;;;24.67;9.13;;;;;;;;;;5078091;28;20020;-93
2021/05/12 03:44:07;;;;;;;18.60;7.77;;;;;;;;;;5082389;28;20027;-93
2021/05/12 03:46:32;;;;;;;21.10;8.43;;;;;;;;;;5072799;28;20027;-93
2021/05/12 03:48:57;;;;;;;20.20;8.80;;;;;;;;;;5075281;28;20021;-93
2021/05/12 03:51:23;;;;;;;20.87;8.20;;;;;;;;;;5084177;28;20028;-92
2021/05/12 03:53:50;;;;;;;18.47;8.17;;;;;;;;;;5073992;28;20078;-93
2021/05/12 03:56:16;;;;;;;20.97;8.57;;;;;;;;;;5092207;28;20053;-93
2021/05/12 03:58:42;;;;;;;20.27;8.13;;;;;;;;;;5076286;28;20047;-92
2021/05/12 04:01:07;;;;;;;20.40;8.80;;;;;;;;;;5078925;28;20096;-92
2021/05/12 04:03:33;;;;;;;24.07;9.00;;;;;;;;;;5076861;28;20019;-92
2021/05/12 04:05:58;;;;;;;21.50;7.97;;;;;;;;;;5041992;28;20048;-92
2021/05/12 04:08:25;;;;;;;23.40;9.03;;;;;;;;;;5053995;28;20036;-92
2021/05/12 04:10:51;;;;;;;22.77;8.30;;;;;;;;;;5056008;28;20079;-92
2021/05/12 04:13:17;;;;;;;19.83;8.67;;;;;;;;;;5055526;28;20017;-93
2021/05/12 04:15:43;;;;;;;19.83;9.00;;;;;;;;;;5060223;28;20535;-92
2021/05/12 04:18:08;;;;;;;18.00;7.93;;;;;;;;;;5060551;28;20083;-92
2021/05/12 04:20:34;;;;;;;19.00;7.47;;;;;;;;;;5047339;28;20365;-92
2021/05/12 04:22:59;;;;;;;18.57;7.57;;;;;;;;;;5037057;28;20025;-92
2021/05/12 04:25:25;;;;;;;16.67;7.73;;;;;;;;;;5058318;28;20227;-93
2021/05/12 04:27:50;;;;;;;19.57;7.87;;;;;;;;;;5056931;28;20505;-93
2021/05/12 04:30:19;;;;;;;20.27;7.57;;;;;;;;;;5055674;28;20024;-92
2021/05/12 04:32:45;;;;;;;21.20;7.33;;;;;;;;;;5038127;28;20020;-92
2021/05/12 04:35:16;;;;;;;18.43;8.17;;;;;;;;;;5059945;28;20013;-93
2021/05/12 04:37:42;;;;;;;16.00;7.13;;;;;;;;;;5054496;28;20552;-93
2021/05/12 04:40:08;;;;;;;19.70;8.00;;;;;;;;;;5056181;28;20057;-93
2021/05/12 04:42:34;;;;;;;20.77;8.27;;;;;;;;;;5046301;28;20030;-93
2021/05/12 04:44:59;;;;;;;18.17;7.60;;;;;;;;;;5053664;28;20044;-92
2021/05/12 04:47:25;;;;;;;17.47;7.47;;;;;;;;;;5057171;28;20021;-93
2021/05/12 04:49:50;;;;;;;15.80;6.73;;;;;;;;;;5053801;28;20729;-93
2021/05/12 04:52:16;;;;;;;17.40;7.17;;;;;;;;;;5056234;28;20433;-93
2021/05/12 04:54:42;;;;;;;16.93;7.43;;;;;;;;;;5051851;28;20057;-93
2021/05/12 04:57:07;;;;;;;16.03;7.43;;;;;;;;;;5060977;28;20116;-93
2021/05/12 04:59:33;;;;;;;16.23;6.40;;;;;;;;;;5055331;28;20032;-93
2021/05/12 05:02:00;;;;;;;15.13;6.17;;;;;;;;;;5059050;28;20016;-93
2021/05/12 05:04:26;;;;;;;19.57;7.33;;;;;;;;;;5058279;28;20056;-93
2021/05/12 05:06:51;;;;;;;18.00;6.67;;;;;;;;;;5089456;28;20017;-92
2021/05/12 05:09:17;;;;;;;17.93;7.10;;;;;;;;;;5073761;28;20012;-93
2021/05/12 05:11:42;;;;;;;16.63;6.13;;;;;;;;;;5071126;28;20017;-92
2021/05/12 05:14:08;;;;;;;16.90;6.77;;;;;;;;;;5086856;28;20085;-93
2021/05/12 05:16:34;;;;;;;14.00;6.40;;;;;;;;;;5083091;28;20036;-92
2021/05/12 05:19:00;;;;;;;14.43;6.40;;;;;;;;;;5073504;28;20058;-93
2021/05/12 05:21:27;;;;;;;13.67;5.33;;;;;;;;;;5075828;28;20039;-93
2021/05/12 05:23:55;;;;;;;15.83;6.10;;;;;;;;;;5076110;28;20032;-93
2021/05/12 05:26:21;;;;;;;12.23;5.60;;;;;;;;;;5085277;28;20063;-93
2021/05/12 05:28:50;;;;;;;13.97;5.80;;;;;;;;;;5085185;28;20024;-92
2021/05/12 05:31:15;;;;;;;13.97;6.67;;;;;;;;;;5084668;28;20029;-93
2021/05/12 05:33:42;;;;;;;15.10;5.70;;;;;;;;;;5086955;28;20090;-93
2021/05/12 05:36:09;;;;;;;12.07;5.43;;;;;;;;;;5069417;28;20036;-93
2021/05/12 05:38:35;;;;;;;13.27;5.47;;;;;;;;;;5083555;28;20127;-92
2021/05/12 05:41:04;;;;;;;11.73;5.70;;;;;;;;;;5083825;28;20016;-93
2021/05/12 05:43:33;;;;;;;11.50;5.17;;;;;;;;;;5072200;28;20041;-93
2021/05/12 05:46:00;;;;;;;13.13;5.40;;;;;;;;;;5073035;28;20027;-93
2021/05/12 05:48:28;;;;;;;12.93;5.33;;;;;;;;;;5078541;28;20376;-93
2021/05/12 05:50:56;;;;;;;14.00;6.07;;;;;;;;;;5077124;28;20468;-93
2021/05/12 05:53:23;;;;;;;12.77;5.27;;;;;;;;;;5078537;28;20039;-93
2021/05/12 05:55:50;;;;;;;12.40;5.50;;;;;;;;;;5087374;28;20012;-92
2021/05/12 05:58:18;;;;;;;13.27;5.23;;;;;;;;;;5074743;28;20511;-93
2021/05/12 06:00:44;;;;;;;13.93;6.13;;;;;;;;;;5085683;28;20397;-93
2021/05/12 06:03:09;;;;;;;10.57;5.13;;;;;;;;;;5074886;28;20043;-93
2021/05/12 06:05:36;;;;;;;11.67;5.60;;;;;;;;;;5046546;28;20493;-93
2021/05/12 06:08:03;;;;;;;12.97;5.50;;;;;;;;;;5053068;28;20063;-92
2021/05/12 06:10:30;;;;;;;10.60;5.20;;;;;;;;;;5038762;28;20025;-92
2021/05/12 06:12:57;;;;;;;13.23;5.30;;;;;;;;;;5060689;28;20047;-93
2021/05/12 06:15:23;;;;;;;12.70;6.07;;;;;;;;;;5036562;28;20044;-93
2021/05/12 06:17:48;;;;;;;13.77;5.73;;;;;;;;;;5070434;28;20025;-92
2021/05/12 06:20:16;;;;;;;11.63;5.43;;;;;;;;;;5052320;28;20056;-93
2021/05/12 06:22:43;;;;;;;11.57;5.27;;;;;;;;;;5062901;28;20047;-93
2021/05/12 06:25:13;;;;;;;10.23;4.73;;;;;;;;;;5062414;28;20036;-93
2021/05/12 06:27:40;;;;;;;13.03;5.57;;;;;;;;;;5064355;28;20028;-92
2021/05/12 06:30:06;;;;;;;11.40;5.00;;;;;;;;;;5048939;28;20075;-93
2021/05/12 06:32:32;;;;;;;12.80;4.70;;;;;;;;;;5067371;28;20119;-93
2021/05/12 06:34:59;;;;;;;14.73;4.70;;;;;;;;;;5063894;28;20061;-93
2021/05/12 06:37:29;;;;;;;11.13;4.97;;;;;;;;;;5058980;28;20374;-93
2021/05/12 06:39:54;;;;;;;13.53;5.20;;;;;;;;;;5061343;28;20374;-93
2021/05/12 06:42:22;;;;;;;12.70;5.47;;;;;;;;;;5077648;28;20071;-93
2021/05/12 06:44:47;;;;;;;11.13;5.03;;;;;;;;;;5044214;28;20008;-93
2021/05/12 06:47:14;;;;;;;11.20;4.90;;;;;;;;;;5042629;28;20032;-93
2021/05/12 06:49:41;;;;;;;11.53;5.47;;;;;;;;;;5073573;28;20388;-93
2021/05/12 06:52:08;;;;;;;11.43;5.30;;;;;;;;;;5058910;28;20040;-93
2021/05/12 06:54:34;;;;;;;12.00;5.23;;;;;;;;;;5059949;28;20044;-93
2021/05/12 06:56:59;;;;;;;11.00;5.37;;;;;;;;;;5060205;28;20021;-92
2021/05/12 06:59:27;;;;;;;13.23;5.07;;;;;;;;;;5062740;28;20547;-93
2021/05/12 07:01:55;;;;;;;10.50;4.60;;;;;;;;;;5065666;28;20024;-93
2021/05/12 07:04:23;;;;;;;13.13;5.30;;;;;;;;;;5070226;28;20451;-93
2021/05/12 07:06:49;;;;;;;15.40;5.57;;;;;;;;;;5080961;28;20012;-92
2021/05/12 07:09:33;;;;;;;12.20;5.37;;;;;;;;;;5083841;28;20025;-94
2021/05/12 07:12:08;;;;;;;9.68;4.55;;;;;;;;;;5073666;28;20469;-92
2021/05/12 07:14:35;;;;;;;13.27;5.30;;;;;;;;;;5083372;28;20492;-93
2021/05/12 07:17:01;;;;;;;9.23;4.43;;;;;;;;;;5066814;28;20160;-93
2021/05/12 07:19:27;;;;;;;11.90;4.87;;;;;;;;;;5081669;28;20032;-92
2021/05/12 07:21:53;;;;;;;11.03;5.30;;;;;;;;;;5079461;28;20024;-93
2021/05/12 07:24:21;;;;;;;10.80;4.83;;;;;;;;;;5080120;28;20034;-92
2021/05/12 07:26:51;;;;;;;10.53;5.00;;;;;;;;;;5084207;28;20041;-93
2021/05/12 07:29:18;;;;;;;10.70;4.90;;;;;;;;;;5087031;28;20384;-92
2021/05/12 07:31:45;;;;;;;12.00;5.13;;;;;;;;;;5084671;28;20484;-92
2021/05/12 07:34:20;;;;;;;10.13;4.60;;;;;;;;;;5069313;28;20039;-92
2021/05/12 07:36:47;;;;;;;11.70;5.10;;;;;;;;;;5076800;28;20205;-93
2021/05/12 07:39:36;;;;;;;11.70;5.23;;;;;;;;;;5071161;28;20114;-93
2021/05/12 07:42:06;;;;;;;10.90;5.00;;;;;;;;;;5080040;28;20144;-93
2021/05/12 07:44:33;;;;;;;10.77;4.93;;;;;;;;;;5076738;28;20021;-93
2021/05/12 07:47:11;;;;;;;9.93;4.47;;;;;;;;;;5075389;28;20031;-94
2021/05/12 07:49:44;;;;;;;13.90;4.90;;;;;;;;;;5037794;28;20400;-93
2021/05/12 07:52:25;;;;;;;9.30;4.17;;;;;;;;;;5078581;28;20115;-93
2021/05/12 07:55:01;;;;;;;12.70;5.00;;;;;;;;;;5083362;28;20074;-93
2021/05/12 07:57:39;;;;;;;9.97;5.10;;;;;;;;;;5074640;28;20029;-93
2021/05/12 08:00:24;;;;;;;7.27;3.83;;;;;;;;;;5082138;28;20072;-94
2021/05/12 08:02:59;;;;;;;7.17;3.80;;;;;;;;;;5079745;28;20032;-93
2021/05/12 08:05:54;;;;;;;13.37;4.90;;;;;;;;;;5073086;28;20505;-93
2021/05/12 08:08:34;;;;;;;10.17;4.13;;;;;;;;;;5090174;28;20047;-93
2021/05/12 08:11:08;;;;;;;9.47;4.43;;;;;;;;;;5082793;28;20039;-93
2021/05/12 08:13:35;;;;;;;8.57;4.03;;;;;;;;;;5076879;28;20111;-92
2021/05/12 08:16:04;;;;;;;7.10;3.80;;;;;;;;;;5087950;28;20157;-93
2021/05/12 08:18:32;;;;;;;8.73;4.13;;;;;;;;;;5082925;28;20114;-93
2021/05/12 08:21:08;;;;;;;8.87;4.00;;;;;;;;;;5085990;28;20079;-93
2021/05/12 08:23:38;;;;;;;8.50;3.87;;;;;;;;;;5084126;28;20032;-92
2021/05/12 08:26:13;;;;;;;7.27;3.87;;;;;;;;;;5084327;28;20384;-93
2021/05/12 08:28:46;;;;;;;9.50;3.90;;;;;;;;;;5086998;28;20104;-93
2021/05/12 08:31:18;;;;;;;8.10;3.40;;;;;;;;;;5079027;28;20044;-93
2021/05/12 08:33:50;;;;;;;8.52;3.05;;;;;;;;;;5024557;28;20037;-93
2021/05/12 08:36:26;;;;;;;9.93;3.50;;;;;;;;;;5069637;28;20036;-93
2021/05/12 08:38:56;;;;;;;9.30;3.22;;;;;;;;;;5082138;28;20013;-93
2021/05/12 08:41:33;;;;;;;6.55;2.85;;;;;;;;;;5080495;28;20111;-92
2021/05/12 08:44:06;;;;;;;6.28;2.90;;;;;;;;;;5093280;28;20028;-93
2021/05/12 08:46:37;;;;;;;6.10;2.90;;;;;;;;;;5076215;28;20484;-93
2021/05/12 08:49:13;;;;;;;6.95;3.03;;;;;;;;;;5074493;28;20037;-93
2021/05/12 08:52:01;;;;;;;7.95;3.60;;;;;;;;;;5078424;28;20020;-93
2021/05/12 08:54:56;;;;;;;7.55;2.88;;;;;;;;;;5078361;28;20031;-93
2021/05/12 08:57:31;;;;;;;5.32;2.72;;;;;;;;;;5091058;28;20091;-94
2021/05/12 09:00:07;;;;;;;5.28;2.42;;;;;;;;;;5080882;28;20035;-93
2021/05/12 09:02:54;;;;;;;7.25;2.80;;;;;;;;;;5073478;28;20031;-93
2021/05/12 09:05:31;;;;;;;6.65;2.80;;;;;;;;;;5078286;28;20526;-93
2021/05/12 09:08:11;;;;;;;5.75;2.85;;;;;;;;;;5081454;28;20080;-93
2021/05/12 09:10:49;;;;;;;5.00;2.80;;;;;;;;;;5084606;28;20482;-93
2021/05/12 09:16:23;;;;;;;6.45;2.97;;;;;;;;;;5084051;28;19918;-93
2021/05/12 09:19:00;;;;;;;5.80;2.95;;;;;;;;;;5074606;28;20035;-93
2021/05/12 09:22:05;;;;;;;7.35;2.88;;;;;;;;;;5064512;28;20036;-93
2021/05/12 09:24:44;;;;;;;6.43;2.72;;;;;;;;;;5051882;28;20024;-93
2021/05/12 09:27:23;;;;;;;5.53;2.58;;;;;;;;;;5047942;28;20028;-93
2021/05/12 09:30:10;;;;;;;4.47;2.00;;;;;;;;;;5073583;28;20032;-94
2021/05/12 09:32:49;;;;;;;6.03;2.50;;;;;;;;;;5076964;28;20043;-91
2021/05/12 09:35:23;;;;;;;5.65;2.40;;;;;;;;;;5090047;28;20122;-91
2021/05/12 09:37:53;;;;;;;5.40;2.55;;;;;;;;;;5082633;28;20111;-93
2021/05/12 09:40:27;;;;;;;5.80;2.67;;;;;;;;;;5071219;28;20043;-94
2021/05/12 09:43:27;;;;;;;5.97;2.42;;;;;;;;;;5076826;28;20536;-94
2021/05/12 09:46:16;;;;;;;6.35;2.70;;;;;;;;;;5076949;28;20024;-93
2021/05/12 09:49:00;;;;;;;5.90;3.03;;;;;;;;;;5081344;28;20403;-93
2021/05/12 09:51:47;;;;;;;5.35;2.65;;;;;;;;;;5087871;28;20484;-94
2021/05/12 09:54:29;;;;;;;5.40;2.50;;;;;;;;;;5078436;28;20020;-93
2021/05/12 09:57:05;;;;;;;6.10;2.30;;;;;;;;;;5084224;28;20028;-93
2021/05/12 09:59:55;;;;;;;6.25;2.22;;;;;;;;;;5073639;28;20375;-93
2021/05/12 10:02:45;;;;;;;5.18;2.20;;;;;;;;;;5071205;28;20029;-93
2021/05/12 10:05:19;;;;;;;5.38;2.38;;;;;;;;;;5076032;28;20036;-93
2021/05/12 10:08:00;;;;;;;6.22;2.80;;;;;;;;;;5060307;28;20028;-93
2021/05/12 10:10:49;;;;;;;5.18;2.47;;;;;;;;;;5073448;28;20036;-93
2021/05/12 10:13:27;;;;;;;3.65;1.77;;;;;;;;;;5090484;28;20116;-93
2021/05/12 10:15:57;;;;;;;5.70;2.08;;;;;;;;;;5092783;28;20026;-94
2021/05/12 10:18:33;;;;;;;8.10;2.65;;;;;;;;;;5070086;28;20113;-93
2021/05/12 10:21:05;;;;;;;4.10;2.13;;;;;;;;;;5093369;28;20044;-93
2021/05/12 10:23:33;;;;;;;;;;;;;;;;;;5086520;28;20486;-93
2021/05/12 10:26:06;;;;;;;4.85;2.30;;;;;;;;;;5072959;28;19944;-93
2021/05/12 10:28:35;;;;;;;;;;;;;;;;;;5073616;28;20519;-93
2021/05/12 10:31:08;;;;;;;4.10;2.05;;;;;;;;;;5086575;28;20005;-93
2021/05/12 10:33:51;;;;;;;4.38;2.05;;;;;;;;;;5082885;28;20091;-94
2021/05/12 10:36:21;;;;;;;4.00;1.98;;;;;;;;;;5077675;28;20040;-93
2021/05/12 10:38:53;;;;;;;6.10;2.10;;;;;;;;;;5065461;28;20400;-93
2021/05/12 10:41:38;;;;;;;4.43;1.90;;;;;;;;;;5072217;28;20407;-93
2021/05/12 10:44:19;;;;;;;5.93;2.17;;;;;;;;;;5068598;28;20174;-94
2021/05/12 10:47:19;;;;;;;5.85;2.28;;;;;;;;;;5072906;28;20031;-93
2021/05/12 10:50:04;;;;;;;4.15;2.30;;;;;;;;;;5075231;28;20487;-94
2021/05/12 10:52:36;;;;;;;5.13;2.30;;;;;;;;;;5074453;28;20017;-94
2021/05/12 10:55:05;;;;;;;3.65;1.70;;;;;;;;;;5070290;28;20085;-93
2021/05/12 10:57:45;;;;;;;5.10;1.60;;;;;;;;;;5091242;28;20048;-94
2021/05/12 11:00:22;;;;;;;4.75;1.75;;;;;;;;;;5076443;28;20037;-93
2021/05/12 11:03:01;;;;;;;6.90;2.25;;;;;;;;;;5074235;28;20060;-94
2021/05/12 11:05:46;;;;;;;4.68;1.85;;;;;;;;;;5072397;28;20511;-93
2021/05/12 11:08:38;;;;;;;5.57;1.98;;;;;;;;;;5076844;28;20062;-94
2021/05/12 11:11:17;;;;;;;8.52;1.90;;;;;;;;;;5070780;28;20392;-94
2021/05/12 11:13:51;;;;;;;4.22;2.00;;;;;;;;;;5092564;28;20036;-94
2021/05/12 11:16:24;;;;;;;3.42;1.45;;;;;;;;;;5087951;28;20032;-93
2021/05/12 11:19:10;;;;;;;3.72;1.35;;;;;;;;;;5087446;28;20523;-93
2021/05/12 11:21:44;;;;;;;3.72;1.60;;;;;;;;;;5079712;28;20055;-93
2021/05/12 11:24:19;;;;;;;6.93;2.00;;;;;;;;;;5080378;28;20103;-93
2021/05/12 11:27:13;;;;;;;4.50;1.60;;;;;;;;;;5093650;28;20012;-94
2021/05/12 11:32:34;;;;;;;5.57;1.70;;;;;;;;;;5078808;28;20048;-91
2021/05/12 11:35:12;;;;;;;6.10;1.33;;;;;;;;;;5092830;28;20084;-92
2021/05/12 11:37:44;;;;;;;4.60;1.42;;;;;;;;;;5074235;28;20499;-91
2021/05/12 11:40:17;;;;;;;7.72;1.75;;;;;;;;;;5089973;28;20020;-92
2021/05/12 11:42:51;;;;;;;5.30;1.52;;;;;;;;;;5097102;28;20028;-92
2021/05/12 11:45:26;;;;;;;4.15;1.65;;;;;;;;;;5083768;28;20035;-91
2021/05/12 11:48:01;;;;;;;4.45;1.60;;;;;;;;;;5088395;28;20035;-94
2021/05/12 11:50:30;;;;;;;7.35;2.20;;;;;;;;;;5077561;28;20024;-94
2021/05/12 11:53:01;;;;;;;3.75;1.90;;;;;;;;;;5079636;28;20123;-93
2021/05/12 11:55:33;;;;;;;5.38;2.00;;;;;;;;;;5082110;28;20024;-93
2021/05/12 11:58:02;;;;;;;;;;;;;;;;;;5079879;28;20469;-93
2021/05/12 12:00:36;;;;;;;4.43;1.80;;;;;;;;;;5085601;28;19991;-94
2021/05/12 12:03:14;;;;;;;4.95;1.58;;;;;;;;;;5087630;28;20025;-94
2021/05/12 12:06:06;;;;;;;5.85;1.95;;;;;;;;;;5068926;28;20561;-93
2021/05/12 12:08:45;;;;;;;6.82;2.00;;;;;;;;;;5086070;28;20033;-94
2021/05/12 12:11:16;;;;;;;4.95;1.98;;;;;;;;;;5074390;28;20037;-93
2021/05/12 12:13:46;;;;;;;5.78;2.50;;;;;;;;;;5061014;28;20025;-93
2021/05/12 12:16:17;;;;;;;4.05;1.65;;;;;;;;;;5083547;28;20028;-94
2021/05/12 12:21:56;;;;;;;2.90;1.50;;;;;;;;;;5124872;22;20097;-94
2021/05/12 12:24:49;;;;;;;6.18;2.08;;;;;;;;;;5093892;28;20043;-93
2021/05/12 12:27:25;;;;;;;5.35;1.90;;;;;;;;;;5095176;28;20095;-94
2021/05/12 12:30:00;;;;;;;4.35;1.60;;;;;;;;;;5095343;28;20028;-94
2021/05/12 12:32:40;;;;;;;3.97;2.00;;;;;;;;;;5093992;28;20027;-93
2021/05/12 12:35:11;;;;;;;6.35;1.85;;;;;;;;;;5092342;28;20247;-94
2021/05/12 12:38:03;;;;;;;7.35;1.95;;;;;;;;;;5095549;28;20024;-93
2021/05/12 12:40:38;;;;;;;5.13;1.98;;;;;;;;;;5091476;28;20446;-94
2021/05/12 12:43:08;;;;;;;4.60;1.67;;;;;;;;;;5095172;28;20020;-94
2021/05/12 12:45:46;;;;;;;4.95;2.03;;;;;;;;;;5093826;28;20043;-94
2021/05/12 12:48:25;;;;;;;5.28;1.67;;;;;;;;;;5095195;28;20043;-93
2021/05/12 12:50:56;;;;;;;3.83;1.50;;;;;;;;;;5080623;28;20024;-94
2021/05/12 12:53:30;;;;;;;4.45;1.52;;;;;;;;;;5078939;28;20036;-95
2021/05/12 12:56:22;;;;;;;4.93;1.60;;;;;;;;;;5083224;28;20024;-94
2021/05/12 12:59:18;;;;;;;3.25;1.30;;;;;;;;;;5090106;28;20081;-93
2021/05/12 13:01:47;;;;;;;5.32;2.10;;;;;;;;;;5094041;28;20127;-94
2021/05/12 13:04:14;;;;;;;5.15;1.67;;;;;;;;;;5092737;28;20032;-94
2021/05/12 13:06:44;;;;;;;5.30;1.52;;;;;;;;;;5084020;28;20035;-93
2021/05/12 13:09:22;;;;;;;5.35;1.73;;;;;;;;;;5092950;28;20135;-93
2021/05/12 13:11:54;;;;;;;5.07;1.63;;;;;;;;;;5100022;28;20028;-94
2021/05/12 13:14:22;;;;;;;4.70;1.80;;;;;;;;;;5096007;28;20031;-94
2021/05/12 13:17:11;;;;;;;4.82;1.70;;;;;;;;;;5096581;28;20034;-94
2021/05/12 13:19:43;;;;;;;4.65;1.90;;;;;;;;;;5083541;28;20067;-94
2021/05/12 13:22:28;;;;;;;4.22;1.65;;;;;;;;;;5096629;28;20055;-93
2021/05/12 13:25:06;;;;;;;3.80;1.50;;;;;;;;;;5073751;28;20032;-94
2021/05/12 13:27:34;;;;;;;5.47;1.70;;;;;;;;;;5069196;28;20017;-94
2021/05/12 13:30:25;;;;;;;3.55;1.45;;;;;;;;;;5074945;28;20532;-94
2021/05/12 13:32:56;;;;;;;6.40;1.50;;;;;;;;;;5073548;28;20465;-94
2021/05/12 13:35:28;;;;;;;4.22;1.50;;;;;;;;;;5070545;28;20041;-94
2021/05/12 13:37:57;;;;;;;5.65;1.88;;;;;;;;;;5075433;28;20020;-94
2021/05/12 13:40:28;;;;;;;8.57;1.77;;;;;;;;;;5068765;28;20040;-93
2021/05/12 13:43:00;;;;;;;5.93;1.87;;;;;;;;;;5073197;28;20040;-93
2021/05/12 13:45:29;;;;;;;3.58;1.50;;;;;;;;;;5080769;28;20024;-93
2021/05/12 13:47:59;;;;;;;6.32;1.88;;;;;;;;;;5069244;28;20027;-93
2021/05/12 13:50:30;;;;;;;5.07;1.83;;;;;;;;;;5069557;28;20123;-93
2021/05/12 13:53:17;;;;;;;3.53;1.63;;;;;;;;;;5038715;28;20029;-93
2021/05/12 13:56:10;;;;;;;5.63;1.80;;;;;;;;;;5073482;28;20040;-93
2021/05/12 14:03:57;;;;;;;4.50;1.60;;;;;;;;;;5074918;28;20453;-93
2021/05/12 14:06:31;;;;;;;4.43;1.73;;;;;;;;;;5071056;28;20463;-93
2021/05/12 14:09:07;;;;;;;3.93;1.40;;;;;;;;;;5074476;28;20016;-93
2021/05/12 14:11:33;;;;;;;5.07;1.50;;;;;;;;;;5062172;28;20028;-93
2021/05/12 14:14:09;;;;;;;5.50;1.20;;;;;;;;;;5049305;28;20028;-94
2021/05/12 14:17:00;;;;;;;2.77;1.07;;;;;;;;;;5072729;28;20035;-93
2021/05/12 14:19:29;;;;;;;3.40;1.40;;;;;;;;;;5074470;28;20039;-93
2021/05/12 14:21:57;;;;;;;7.47;1.30;;;;;;;;;;5075868;28;20427;-93
2021/05/12 14:24:27;;;;;;;3.37;1.30;;;;;;;;;;5087804;28;20445;-93
2021/05/12 14:26:54;;;;;;;2.20;1.00;;;;;;;;;;5094100;28;20028;-93
2021/05/12 14:29:29;;;;;;;4.93;1.40;;;;;;;;;;5076746;28;20012;-93
2021/05/12 14:31:55;;;;;;;4.53;1.37;;;;;;;;;;5095198;28;20028;-94
2021/05/12 14:34:21;;;;;;;4.87;1.80;;;;;;;;;;5093616;28;20023;-93
2021/05/12 14:36:50;;;;;;;4.70;1.20;;;;;;;;;;5089474;28;20377;-94
2021/05/12 15:13:38;;;;;;;3.15;0.90;;;;;;;;;;5065498;23;20082;-82
2021/05/12 15:16:04;;;;;;;1.98;0.90;;;;;;;;;;5092253;28;20020;-83
2021/05/12 15:18:29;;;;;;;2.30;0.80;;;;;;;;;;5115421;28;20156;-82
2021/05/12 15:20:54;;;;;;;3.28;1.00;;;;;;;;;;5102798;28;20059;-81
2021/05/12 15:23:20;;;;;;;2.95;1.10;;;;;;;;;;5115591;28;20019;-82
2021/05/12 15:25:45;;;;;;;4.90;1.10;;;;;;;;;;5110838;28;20129;-83
2021/05/12 15:28:11;;;;;;;3.20;1.00;;;;;;;;;;5123124;28;20073;-83
2021/05/12 15:30:36;;;;;;;3.15;0.90;;;;;;;;;;5123498;28;20024;-83
2021/05/12 15:33:02;;;;;;;2.10;0.90;;;;;;;;;;5125094;28;20022;-82
2021/05/12 15:35:27;;;;;;;3.47;0.80;;;;;;;;;;5116207;28;20020;-82
2021/05/12 15:37:53;;;;;;;5.30;1.00;;;;;;;;;;5120683;28;20023;-82
2021/05/12 15:40:18;;;;;;;3.83;1.27;;;;;;;;;;5118191;28;20032;-82
2021/05/12 15:42:43;;;;;;;3.22;1.00;;;;;;;;;;5122106;28;20559;-82
2021/05/12 15:45:09;;;;;;;2.90;0.75;;;;;;;;;;5118750;28;20016;-82
2021/05/12 15:47:35;;;;;;;6.53;1.00;;;;;;;;;;5115483;28;20062;-83